COOK1: Arkansas River Nr Coolidge, KS

                                SHEF ID:       COOK1     ARKANSAS R NR COOLIDGE, KS
STATION TYPE:
Regulating: Stage = 8.00, Flow = 2026

PRECIP STAGE STAGE(2) RIV-FLOW WTR-TEMP CONDUCT BAT-LOAD
in ft ft cfs F umho/cm volt
Ccp-Rev Ccp-Rev Ccp-Rev Ccp-Rev Ccp-Rev Ccp-Rev Ccp-Rev
(America/Chicago)
07/16 00:00 0.00 4.21 4.38 323 80.19 3161 12.95
07/16 01:00 0.00 4.22 4.37 326 79.52 3163 12.89
07/16 02:00 0.00 4.23 4.38 328 78.87 3155 12.89
07/16 03:00 0.00 4.24 4.36 330 78.31 3163 12.89
07/16 04:00 0.00 4.23 4.38 328 77.79 3197 12.89
07/16 05:00 0.00 4.24 4.37 330 77.20 3200 12.83
07/16 06:00 0.00 4.27 4.42 338 76.59 3193 12.83
07/16 07:00 0.00 4.27 4.43 338 75.88 3191 12.83
07/16 08:00 0.00 4.29 4.45 343 75.24 3182 12.83
07/16 09:00 0.00 4.32 4.47 350 75.00 3177 12.89
07/16 10:00 0.00 4.32 4.49 350 75.20 3173 13.12
07/16 11:00 0.00 4.32 4.48 350 75.99 3164 13.53
07/16 12:00 0.00 4.35 4.52 358 77.18 3168 13.71
07/16 13:00 0.00 4.35 4.51 358 78.60 3163 13.77
07/16 14:00 0.00 4.37 4.51 363 80.10 3163 13.65
07/16 15:00 0.00 4.36 4.53 360 81.52 3172 13.59
07/16 16:00 0.00 4.38 4.55 365 82.72 3173 13.53
07/16 17:00 0.00 4.39 4.52 368 83.70 3154 13.30
07/16 18:00 0.00 4.41 4.56 373 84.33 3134 13.30
07/16 19:00 0.00 4.40 4.53 338 84.16 3136 13.18
07/16 20:00 0.30 4.44 4.62 348 82.90 3089 13.07
07/16 21:00 1.39 4.60 4.73 389 80.74 2965 13.00
07/16 22:00 0.12 4.64 4.80 400 79.95 2974 12.95
07/16 23:00 ---- ---- ---- ---- ---- ---- ----
Data processed at Wed 17Jul2024 04:30 GMT

Parsing this webpage?

Checkout our new Data API! CWMSDataAPI (CDA)

Timeseries IDs (TSIDs)

TSIDs used from left to right in the data table
COOL.Precip-Inc.Total.1Hour.1Hour.Ccp-Rev
COOL.Stage.Inst.1Hour.0.Ccp-Rev
COOL.Stage-Alt.Inst.1Hour.0.Ccp-Rev
COOL.Flow.Inst.1Hour.0.Ccp-Rev
COOL.Temp-Water.Inst.1Hour.0.Ccp-Rev
COOL.Cond.Inst.1Hour.0.Ccp-Rev
COOL.Volt-Battery Load.Inst.1Hour.0.Ccp-Rev

                            

All information presented herein is the property of the government of the United States of America and may be revised or deleted at any time without prior notice. Dissemination of this information without the expressed written consent of the Public Affairs Office, Tulsa District U.S. Army Corps of Engineers is strictly prohibited. These data are gathered electronically and, as presented, have NOT undergone any form of quality control. These data are NOT guaranteed to be valid or correct.